Isabella, Oklahoma
Current Conditions -  °F | °C
As of 6:58 AM on Thursday 27 Nov 2014 (Local Time) from KEND Reporting Station
Clear Clear  
Wind Chill: 26°   Ceiling: Unl
Heat Index: 26°   Visibility: 10mi
Dew Point: 20°   Wind: 3mph
Humidity: 77%   Direction: 30°NNE
Pressure: 30.49"   Gusts: NA
Location:  36.24°N, 98.34°W
Report Text: KEND 271258Z AUTO 03003KT 10SM CLR M03/M07 A3049 RMK AO2 SLP339 T10321067 $
Loading
Personal Weather Stations






























Interactive Weather Map New forecast layout! Learn more

10-Day Weather Forecast

Advertisements
Track Severe Weather on mobile